M. S. Shahan II — WDD7097 — position and weather

sailwx.info

Track history (hours):
 
Tides and Currents Weather Stations Pressure Air Temp Water Temp Dewpoint Dewpoint Depression Visibility Wind Speed Wind Dir Waves Ship Positions

M. S. Shahan II

Owner: Department of Homeland Security Plum Island Facility, Greenport, NY. More information available from US FCC via Universal Licensing System and Coast Guard Vessel Documentation Center.

Last reported at 2018-Apr-26 04:23 UTC. Time now 2018-Apr-26 07:56 UTC.
Position N 41°17' W 072°21'.

Length 40 m; draft 3 m.

Type: Passenger vessel. MMSI: 367181880.

Date/timePositionNaut miles runAvg speedWind from/ knotsBaromVisibWave heightAir tempDewpointWater temp
2018-Apr-26 04:23N 41°17' W 072°21'514.0
2018-Apr-26 04:00N 41°13' W 072°16'2 0.6
2018-Apr-25 23:41N 41°11' W 072°14'421.5
2018-Apr-25 23:30N 41°14' W 072°18'1 1.4
2018-Apr-25 23:00N 41°14' W 072°18'3 1.8
2018-Apr-25 21:10N 41°12' W 072°16'321.0
2018-Apr-25 21:00N 41°14' W 072°19'1 2.6
2018-Apr-25 20:30N 41°13' W 072°18'3 4.8
2018-Apr-25 19:56N 41°11' W 072°15'716.8
2018-Apr-25 19:30N 41°17' W 072°21'4 8.1
2018-Apr-25 19:00N 41°14' W 072°17'2 0.8
2018-Apr-25 16:35N 41°12' W 072°16'222.6
2018-Apr-25 16:30N 41°13' W 072°17'4 8.6
2018-Apr-25 16:00N 41°17' W 072°21'6 1.5
2018-Apr-25 12:08N 41°12' W 072°16'320.9
2018-Apr-25 12:00N 41°14' W 072°19'3 6.7
2018-Apr-25 11:30N 41°17' W 072°21'7 7.9
2018-Apr-25 10:40N 41°11' W 072°15'319.9
2018-Apr-25 10:30N 41°14' W 072°19'4 7.5
2018-Apr-25 10:00N 41°17' W 072°21'0 0.0
2018-Apr-25 04:19N 41°17' W 072°21'516.4
2018-Apr-25 04:00N 41°13' W 072°17'5 1.1
2018-Apr-24 23:51N 41°09' W 072°13'514.1
2018-Apr-24 23:30N 41°13' W 072°17'1 3.0
2018-Apr-24 23:00N 41°14' W 072°18'6 6.7
2018-Apr-24 22:04N 41°09' W 072°13'3 3.9
2018-Apr-24 21:18N 41°11' W 072°16'621.0
2018-Apr-24 21:00N 41°16' W 072°21'4 9.0
2018-Apr-24 20:30N 41°13' W 072°17'2 3.8
2018-Apr-24 19:57N 41°11' W 072°15'716.0
2018-Apr-24 19:30N 41°17' W 072°21'4 7.8
2018-Apr-24 19:00N 41°14' W 072°18'3 1.5
2018-Apr-24 16:37N 41°11' W 072°15'322.6
2018-Apr-24 16:30N 41°13' W 072°17'5 9.6
2018-Apr-24 16:00N 41°17' W 072°21'8 2.1
2018-Apr-24 12:09N 41°11' W 072°14'322.5
2018-Apr-24 12:00N 41°13' W 072°17'5 9.5
2018-Apr-24 11:30N 41°17' W 072°21'918.2
2018-Apr-24 11:00N 41°10' W 072°12'611.0
2018-Apr-24 10:30N 41°14' W 072°18'4 7.7
2018-Apr-24 10:00N 41°17' W 072°21'0 0.0
2018-Apr-24 09:30N 41°17' W 072°21'0 0.0
2018-Apr-24 09:00N 41°17' W 072°21'0 0.0
2018-Apr-24 08:30N 41°17' W 072°21'0 0.0
2018-Apr-24 08:00N 41°17' W 072°21'0 0.0
2018-Apr-24 07:30N 41°17' W 072°21'0 0.0
2018-Apr-24 06:59N 41°17' W 072°21'0 0.0
2018-Apr-24 06:30N 41°17' W 072°21'0 0.0
2018-Apr-24 06:00N 41°17' W 072°21'0 0.0
2018-Apr-24 05:30N 41°17' W 072°21'0 0.0
2018-Apr-24 05:00N 41°17' W 072°21'0 0.0
2018-Apr-24 04:30N 41°17' W 072°21'510.8
2018-Apr-24 04:00N 41°13' W 072°16'3 0.6
2018-Apr-23 23:44N 41°11' W 072°14'523.0
2018-Apr-23 23:31N 41°14' W 072°19'1 2.8
2018-Apr-23 23:00N 41°14' W 072°17'5 5.3
2018-Apr-23 22:01N 41°10' W 072°12'1 2.5
2018-Apr-23 21:31N 41°09' W 072°14'1 2.5
2018-Apr-23 21:18N 41°09' W 072°13'621.6
2018-Apr-23 21:00N 41°14' W 072°19'1 1.4
2018-Apr-23 20:31N 41°14' W 072°18'5 6.9
2018-Apr-23 19:51N 41°11' W 072°14'721.1
2018-Apr-23 19:31N 41°16' W 072°21'3 5.6
2018-Apr-23 19:01N 41°14' W 072°18'5 2.1
2018-Apr-23 16:40N 41°10' W 072°13'423.1
2018-Apr-23 16:30N 41°13' W 072°17'510.0
2018-Apr-23 16:01N 41°17' W 072°21'9 2.4
2018-Apr-23 12:13N 41°10' W 072°12'522.4
2018-Apr-23 12:00N 41°13' W 072°17'5 9.2
2018-Apr-23 11:30N 41°17' W 072°21'918.3
2018-Apr-23 11:00N 41°10' W 072°12'4 8.4
2018-Apr-23 10:30N 41°13' W 072°17'510.1
2018-Apr-23 10:00N 41°17' W 072°21'0 0.0
2018-Apr-23 04:14N 41°17' W 072°21'520.8
2018-Apr-23 04:00N 41°13' W 072°17'3 0.6
2018-Apr-22 22:18N 41°11' W 072°14'722.8
2018-Apr-22 22:01N 41°15' W 072°20'4 7.0
2018-Apr-22 21:30N 41°13' W 072°17'  
2018-Apr-20 16:23N 41°12' W 072°17'615.4
2018-Apr-20 16:00N 41°17' W 072°21'8 2.2
2018-Apr-20 12:10N 41°11' W 072°14'423.6
2018-Apr-20 12:01N 41°12' W 072°18'5 9.4
2018-Apr-20 11:30N 41°17' W 072°21'910.8
2018-Apr-20 10:41N 41°10' W 072°13'422.3
2018-Apr-20 10:30N 41°13' W 072°17'5 9.8
2018-Apr-20 10:00N 41°17' W 072°21'0 0.0
2018-Apr-20 09:30N 41°17' W 072°21'0 0.0
2018-Apr-20 09:00N 41°17' W 072°21'0 0.0
2018-Apr-20 08:30N 41°17' W 072°21'0 0.0
2018-Apr-20 07:59N 41°17' W 072°21'0 0.0
2018-Apr-20 07:30N 41°17' W 072°21'0 0.0
2018-Apr-20 07:00N 41°17' W 072°21'0 0.0
2018-Apr-20 06:30N 41°17' W 072°21'0 0.0
2018-Apr-20 06:00N 41°17' W 072°21'0 0.0
2018-Apr-20 05:30N 41°17' W 072°21'0 0.0
2018-Apr-20 05:00N 41°17' W 072°21'0 0.0
2018-Apr-20 04:30N 41°17' W 072°21'0 0.0
2018-Apr-20 04:00N 41°17' W 072°21'0 0.0
2018-Apr-20 03:30N 41°17' W 072°21'0 0.0
2018-Apr-20 03:00N 41°17' W 072°21'0 0.0
2018-Apr-20 02:30N 41°17' W 072°21'0 0.0
2018-Apr-20 01:59N 41°17' W 072°21'0 0.0
2018-Apr-20 01:30N 41°17' W 072°21'0 0.0
2018-Apr-20 01:00N 41°17' W 072°21'0 0.0
2018-Apr-20 00:30N 41°17' W 072°21'0 0.0
2018-Apr-20 00:00N 41°17' W 072°21'0 0.0
2018-Apr-19 23:30N 41°17' W 072°21'0 0.0
2018-Apr-19 23:00N 41°17' W 072°21'0 0.0
2018-Apr-19 22:30N 41°17' W 072°21'0 0.0
2018-Apr-19 22:00N 41°17' W 072°21'0 0.0
2018-Apr-19 21:30N 41°17' W 072°21'0 0.1
2018-Apr-19 21:00N 41°17' W 072°21'5 9.7
2018-Apr-19 20:30N 41°13' W 072°17'4 5.4
2018-Apr-19 19:48N 41°10' W 072°13'723.5
2018-Apr-19 19:30N 41°15' W 072°20'3 6.1
2018-Apr-19 18:58N 41°13' W 072°17'2 1.1
2018-Apr-19 16:37N 41°11' W 072°14'221.0
2018-Apr-19 16:30N 41°12' W 072°17'510.6
2018-Apr-19 16:00N 41°17' W 072°21'9 2.3
2018-Apr-19 12:12N 41°10' W 072°13'422.9
2018-Apr-19 12:00N 41°13' W 072°18'4 8.5
2018-Apr-19 11:30N 41°17' W 072°21'917.5
2018-Apr-19 10:59N 41°10' W 072°13'5 9.5
2018-Apr-19 10:30N 41°13' W 072°17'5 9.2
2018-Apr-19 10:00N 41°17' W 072°21'0 0.0
2018-Apr-19 09:28N 41°17' W 072°21'0 0.0
2018-Apr-19 04:18N 41°17' W 072°21'515.8
2018-Apr-19 04:00N 41°13' W 072°17'5 9.4
2018-Apr-19 03:30N 41°10' W 072°12'2 0.6
2018-Apr-19 00:16N 41°09' W 072°15'2 4.4
2018-Apr-18 23:51N 41°10' W 072°12'822.1
2018-Apr-18 23:30N 41°15' W 072°20'3 5.6
2018-Apr-18 23:00N 41°13' W 072°17'5 7.9
2018-Apr-18 22:23N 41°09' W 072°14'0 0.0
2018-Apr-18 21:35N 41°09' W 072°14'2 5.8
2018-Apr-18 21:16N 41°11' W 072°15'622.1
2018-Apr-18 21:00N 41°15' W 072°20'3 6.8
2018-Apr-18 20:30N 41°12' W 072°17'4 7.3
2018-Apr-18 20:00N 41°10' W 072°13'917.6
2018-Apr-18 19:30N 41°17' W 072°21'611.7
2018-Apr-18 19:00N 41°12' W 072°17'4 1.7
2018-Apr-18 16:50N 41°10' W 072°12'720.7
2018-Apr-18 16:30N 41°13' W 072°20'2 4.7
2018-Apr-18 16:00N 41°15' W 072°21'4 1.1
2018-Apr-18 12:05N 41°12' W 072°18'222.3
2018-Apr-18 12:00N 41°13' W 072°19'4 8.4
2018-Apr-18 11:30N 41°17' W 072°21'810.1
2018-Apr-18 10:40N 41°11' W 072°13'422.5
2018-Apr-18 10:30N 41°13' W 072°18'510.0
2018-Apr-18 10:00N 41°17' W 072°21'0 0.0
2018-Apr-18 04:22N 41°17' W 072°21'716.5
2018-Apr-18 03:57N 41°12' W 072°15'2 0.6
2018-Apr-17 23:46N 41°12' W 072°18'518.1
2018-Apr-17 23:30N 41°17' W 072°21'4 8.7
2018-Apr-17 23:01N 41°13' W 072°18'5 3.1
2018-Apr-17 21:25N 41°09' W 072°14'717.7
2018-Apr-17 21:01N 41°15' W 072°20'3 5.7
2018-Apr-17 20:30N 41°13' W 072°17'4 7.9
2018-Apr-17 19:59N 41°10' W 072°13'918.5
2018-Apr-17 19:30N 41°17' W 072°21'5 9.7
2018-Apr-17 19:00N 41°13' W 072°17'4 1.5
2018-Apr-17 16:41N 41°11' W 072°13'421.1
2018-Apr-17 16:30N 41°13' W 072°17'5 9.7
2018-Apr-17 16:00N 41°17' W 072°21'9 2.4
2018-Apr-17 12:13N 41°10' W 072°12'421.0
2018-Apr-17 12:00N 41°13' W 072°17'5 9.6
2018-Apr-17 11:30N 41°17' W 072°21'8 9.5
2018-Apr-17 10:39N 41°11' W 072°14'322.7
2018-Apr-17 10:30N 41°13' W 072°17'5 9.3
2018-Apr-17 10:00N 41°17' W 072°21'0 0.0
2018-Apr-17 04:21N 41°17' W 072°21'515.0
2018-Apr-17 03:59N 41°13' W 072°16'1 0.3
2018-Apr-16 23:51N 41°11' W 072°16'718.8
2018-Apr-16 23:31N 41°17' W 072°21'3 5.9
2018-Apr-16 23:00N 41°14' W 072°19'6 3.9
2018-Apr-16 21:20N 41°09' W 072°13'721.9
2018-Apr-16 21:01N 41°14' W 072°20'2 4.1
2018-Apr-16 20:31N 41°14' W 072°17'2 2.3
2018-Apr-16 19:50N 41°12' W 072°16'617.4
2018-Apr-16 19:30N 41°17' W 072°21'0 0.0
2018-Apr-16 19:00N 41°17' W 072°21'0 0.0
2018-Apr-16 18:30N 41°17' W 072°21'0 0.0
2018-Apr-16 18:00N 41°17' W 072°21'0 0.0
2018-Apr-16 17:30N 41°17' W 072°21'0 0.0
2018-Apr-16 17:00N 41°17' W 072°21'0 0.0
2018-Apr-16 16:30N 41°17' W 072°21'0 0.7
2018-Apr-16 16:00N 41°17' W 072°21'6 1.6
2018-Apr-16 12:06N 41°10' W 072°19'219.2
2018-Apr-16 12:00N 41°12' W 072°20'  
Track history (hours):
 
Tides and Currents Weather Stations Pressure Air Temp Water Temp Dewpoint Dewpoint Depression Visibility Wind Speed Wind Dir Waves Ship Positions

M. S. Shahan II

Owner: Department of Homeland Security Plum Island Facility, Greenport, NY. More information available from US FCC via Universal Licensing System and Coast Guard Vessel Documentation Center.

Last reported at 2018-Apr-26 04:23 UTC. Time now 2018-Apr-26 07:56 UTC.
Position N 41°17' W 072°21'.

Length 40 m; draft 3 m.

Type: Passenger vessel. MMSI: 367181880.

Date/timePositionNaut miles runAvg speedWind from/ knotsBaromVisibWave heightAir tempDewpointWater temp
2018-Apr-26 04:23N 41°17' W 072°21'514.0
2018-Apr-26 04:00N 41°13' W 072°16'2 0.6
2018-Apr-25 23:41N 41°11' W 072°14'421.5
2018-Apr-25 23:30N 41°14' W 072°18'1 1.4
2018-Apr-25 23:00N 41°14' W 072°18'3 1.8
2018-Apr-25 21:10N 41°12' W 072°16'321.0
2018-Apr-25 21:00N 41°14' W 072°19'1 2.6
2018-Apr-25 20:30N 41°13' W 072°18'3 4.8
2018-Apr-25 19:56N 41°11' W 072°15'716.8
2018-Apr-25 19:30N 41°17' W 072°21'4 8.1
2018-Apr-25 19:00N 41°14' W 072°17'2 0.8
2018-Apr-25 16:35N 41°12' W 072°16'222.6
2018-Apr-25 16:30N 41°13' W 072°17'4 8.6
2018-Apr-25 16:00N 41°17' W 072°21'6 1.5
2018-Apr-25 12:08N 41°12' W 072°16'320.9
2018-Apr-25 12:00N 41°14' W 072°19'3 6.7
2018-Apr-25 11:30N 41°17' W 072°21'7 7.9
2018-Apr-25 10:40N 41°11' W 072°15'319.9
2018-Apr-25 10:30N 41°14' W 072°19'4 7.5
2018-Apr-25 10:00N 41°17' W 072°21'0 0.0
2018-Apr-25 04:19N 41°17' W 072°21'516.4
2018-Apr-25 04:00N 41°13' W 072°17'5 1.1
2018-Apr-24 23:51N 41°09' W 072°13'514.1
2018-Apr-24 23:30N 41°13' W 072°17'1 3.0
2018-Apr-24 23:00N 41°14' W 072°18'6 6.7
2018-Apr-24 22:04N 41°09' W 072°13'3 3.9
2018-Apr-24 21:18N 41°11' W 072°16'621.0
2018-Apr-24 21:00N 41°16' W 072°21'4 9.0
2018-Apr-24 20:30N 41°13' W 072°17'2 3.8
2018-Apr-24 19:57N 41°11' W 072°15'716.0
2018-Apr-24 19:30N 41°17' W 072°21'4 7.8
2018-Apr-24 19:00N 41°14' W 072°18'3 1.5
2018-Apr-24 16:37N 41°11' W 072°15'322.6
2018-Apr-24 16:30N 41°13' W 072°17'5 9.6
2018-Apr-24 16:00N 41°17' W 072°21'8 2.1
2018-Apr-24 12:09N 41°11' W 072°14'322.5
2018-Apr-24 12:00N 41°13' W 072°17'5 9.5
2018-Apr-24 11:30N 41°17' W 072°21'918.2
2018-Apr-24 11:00N 41°10' W 072°12'611.0
2018-Apr-24 10:30N 41°14' W 072°18'4 7.7
2018-Apr-24 10:00N 41°17' W 072°21'0 0.0
2018-Apr-24 09:30N 41°17' W 072°21'0 0.0
2018-Apr-24 09:00N 41°17' W 072°21'0 0.0
2018-Apr-24 08:30N 41°17' W 072°21'0 0.0
2018-Apr-24 08:00N 41°17' W 072°21'0 0.0
2018-Apr-24 07:30N 41°17' W 072°21'0 0.0
2018-Apr-24 06:59N 41°17' W 072°21'0 0.0
2018-Apr-24 06:30N 41°17' W 072°21'0 0.0
2018-Apr-24 06:00N 41°17' W 072°21'0 0.0
2018-Apr-24 05:30N 41°17' W 072°21'0 0.0
2018-Apr-24 05:00N 41°17' W 072°21'0 0.0
2018-Apr-24 04:30N 41°17' W 072°21'510.8
2018-Apr-24 04:00N 41°13' W 072°16'3 0.6
2018-Apr-23 23:44N 41°11' W 072°14'523.0
2018-Apr-23 23:31N 41°14' W 072°19'1 2.8
2018-Apr-23 23:00N 41°14' W 072°17'5 5.3
2018-Apr-23 22:01N 41°10' W 072°12'1 2.5
2018-Apr-23 21:31N 41°09' W 072°14'1 2.5
2018-Apr-23 21:18N 41°09' W 072°13'621.6
2018-Apr-23 21:00N 41°14' W 072°19'1 1.4
2018-Apr-23 20:31N 41°14' W 072°18'5 6.9
2018-Apr-23 19:51N 41°11' W 072°14'721.1
2018-Apr-23 19:31N 41°16' W 072°21'3 5.6
2018-Apr-23 19:01N 41°14' W 072°18'5 2.1
2018-Apr-23 16:40N 41°10' W 072°13'423.1
2018-Apr-23 16:30N 41°13' W 072°17'510.0
2018-Apr-23 16:01N 41°17' W 072°21'9 2.4
2018-Apr-23 12:13N 41°10' W 072°12'522.4
2018-Apr-23 12:00N 41°13' W 072°17'5 9.2
2018-Apr-23 11:30N 41°17' W 072°21'918.3
2018-Apr-23 11:00N 41°10' W 072°12'4 8.4
2018-Apr-23 10:30N 41°13' W 072°17'510.1
2018-Apr-23 10:00N 41°17' W 072°21'0 0.0
2018-Apr-23 04:14N 41°17' W 072°21'520.8
2018-Apr-23 04:00N 41°13' W 072°17'3 0.6
2018-Apr-22 22:18N 41°11' W 072°14'722.8
2018-Apr-22 22:01N 41°15' W 072°20'4 7.0
2018-Apr-22 21:30N 41°13' W 072°17'  
2018-Apr-20 16:23N 41°12' W 072°17'615.4
2018-Apr-20 16:00N 41°17' W 072°21'8 2.2
2018-Apr-20 12:10N 41°11' W 072°14'423.6
2018-Apr-20 12:01N 41°12' W 072°18'5 9.4
2018-Apr-20 11:30N 41°17' W 072°21'910.8
2018-Apr-20 10:41N 41°10' W 072°13'422.3
2018-Apr-20 10:30N 41°13' W 072°17'5 9.8
2018-Apr-20 10:00N 41°17' W 072°21'0 0.0
2018-Apr-20 09:30N 41°17' W 072°21'0 0.0
2018-Apr-20 09:00N 41°17' W 072°21'0 0.0
2018-Apr-20 08:30N 41°17' W 072°21'0 0.0
2018-Apr-20 07:59N 41°17' W 072°21'0 0.0
2018-Apr-20 07:30N 41°17' W 072°21'0 0.0
2018-Apr-20 07:00N 41°17' W 072°21'0 0.0
2018-Apr-20 06:30N 41°17' W 072°21'0 0.0
2018-Apr-20 06:00N 41°17' W 072°21'0 0.0
2018-Apr-20 05:30N 41°17' W 072°21'0 0.0
2018-Apr-20 05:00N 41°17' W 072°21'0 0.0
2018-Apr-20 04:30N 41°17' W 072°21'0 0.0
2018-Apr-20 04:00N 41°17' W 072°21'0 0.0
2018-Apr-20 03:30N 41°17' W 072°21'0 0.0
2018-Apr-20 03:00N 41°17' W 072°21'0 0.0
2018-Apr-20 02:30N 41°17' W 072°21'0 0.0
2018-Apr-20 01:59N 41°17' W 072°21'0 0.0
2018-Apr-20 01:30N 41°17' W 072°21'0 0.0
2018-Apr-20 01:00N 41°17' W 072°21'0 0.0
2018-Apr-20 00:30N 41°17' W 072°21'0 0.0
2018-Apr-20 00:00N 41°17' W 072°21'0 0.0
2018-Apr-19 23:30N 41°17' W 072°21'0 0.0
2018-Apr-19 23:00N 41°17' W 072°21'0 0.0
2018-Apr-19 22:30N 41°17' W 072°21'0 0.0
2018-Apr-19 22:00N 41°17' W 072°21'0 0.0
2018-Apr-19 21:30N 41°17' W 072°21'0 0.1
2018-Apr-19 21:00N 41°17' W 072°21'5 9.7
2018-Apr-19 20:30N 41°13' W 072°17'4 5.4
2018-Apr-19 19:48N 41°10' W 072°13'723.5
2018-Apr-19 19:30N 41°15' W 072°20'3 6.1
2018-Apr-19 18:58N 41°13' W 072°17'2 1.1
2018-Apr-19 16:37N 41°11' W 072°14'221.0
2018-Apr-19 16:30N 41°12' W 072°17'510.6
2018-Apr-19 16:00N 41°17' W 072°21'9 2.3
2018-Apr-19 12:12N 41°10' W 072°13'422.9
2018-Apr-19 12:00N 41°13' W 072°18'4 8.5
2018-Apr-19 11:30N 41°17' W 072°21'917.5
2018-Apr-19 10:59N 41°10' W 072°13'5 9.5
2018-Apr-19 10:30N 41°13' W 072°17'5 9.2
2018-Apr-19 10:00N 41°17' W 072°21'0 0.0
2018-Apr-19 09:28N 41°17' W 072°21'0 0.0
2018-Apr-19 04:18N 41°17' W 072°21'515.8
2018-Apr-19 04:00N 41°13' W 072°17'5 9.4
2018-Apr-19 03:30N 41°10' W 072°12'2 0.6
2018-Apr-19 00:16N 41°09' W 072°15'2 4.4
2018-Apr-18 23:51N 41°10' W 072°12'822.1
2018-Apr-18 23:30N 41°15' W 072°20'3 5.6
2018-Apr-18 23:00N 41°13' W 072°17'5 7.9
2018-Apr-18 22:23N 41°09' W 072°14'0 0.0
2018-Apr-18 21:35N 41°09' W 072°14'2 5.8
2018-Apr-18 21:16N 41°11' W 072°15'622.1
2018-Apr-18 21:00N 41°15' W 072°20'3 6.8
2018-Apr-18 20:30N 41°12' W 072°17'4 7.3
2018-Apr-18 20:00N 41°10' W 072°13'917.6
2018-Apr-18 19:30N 41°17' W 072°21'611.7
2018-Apr-18 19:00N 41°12' W 072°17'4 1.7
2018-Apr-18 16:50N 41°10' W 072°12'720.7
2018-Apr-18 16:30N 41°13' W 072°20'2 4.7
2018-Apr-18 16:00N 41°15' W 072°21'4 1.1
2018-Apr-18 12:05N 41°12' W 072°18'222.3
2018-Apr-18 12:00N 41°13' W 072°19'4 8.4
2018-Apr-18 11:30N 41°17' W 072°21'810.1
2018-Apr-18 10:40N 41°11' W 072°13'422.5
2018-Apr-18 10:30N 41°13' W 072°18'510.0
2018-Apr-18 10:00N 41°17' W 072°21'0 0.0
2018-Apr-18 04:22N 41°17' W 072°21'716.5
2018-Apr-18 03:57N 41°12' W 072°15'2 0.6
2018-Apr-17 23:46N 41°12' W 072°18'518.1
2018-Apr-17 23:30N 41°17' W 072°21'4 8.7
2018-Apr-17 23:01N 41°13' W 072°18'5 3.1
2018-Apr-17 21:25N 41°09' W 072°14'717.7
2018-Apr-17 21:01N 41°15' W 072°20'3 5.7
2018-Apr-17 20:30N 41°13' W 072°17'4 7.9
2018-Apr-17 19:59N 41°10' W 072°13'918.5
2018-Apr-17 19:30N 41°17' W 072°21'5 9.7
2018-Apr-17 19:00N 41°13' W 072°17'4 1.5
2018-Apr-17 16:41N 41°11' W 072°13'421.1
2018-Apr-17 16:30N 41°13' W 072°17'5 9.7
2018-Apr-17 16:00N 41°17' W 072°21'9 2.4
2018-Apr-17 12:13N 41°10' W 072°12'421.0
2018-Apr-17 12:00N 41°13' W 072°17'5 9.6
2018-Apr-17 11:30N 41°17' W 072°21'8 9.5
2018-Apr-17 10:39N 41°11' W 072°14'322.7
2018-Apr-17 10:30N 41°13' W 072°17'5 9.3
2018-Apr-17 10:00N 41°17' W 072°21'0 0.0
2018-Apr-17 04:21N 41°17' W 072°21'515.0
2018-Apr-17 03:59N 41°13' W 072°16'1 0.3
2018-Apr-16 23:51N 41°11' W 072°16'718.8
2018-Apr-16 23:31N 41°17' W 072°21'3 5.9
2018-Apr-16 23:00N 41°14' W 072°19'6 3.9
2018-Apr-16 21:20N 41°09' W 072°13'721.9
2018-Apr-16 21:01N 41°14' W 072°20'2 4.1
2018-Apr-16 20:31N 41°14' W 072°17'2 2.3
2018-Apr-16 19:50N 41°12' W 072°16'617.4
2018-Apr-16 19:30N 41°17' W 072°21'0 0.0
2018-Apr-16 19:00N 41°17' W 072°21'0 0.0
2018-Apr-16 18:30N 41°17' W 072°21'0 0.0
2018-Apr-16 18:00N 41°17' W 072°21'0 0.0
2018-Apr-16 17:30N 41°17' W 072°21'0 0.0
2018-Apr-16 17:00N 41°17' W 072°21'0 0.0
2018-Apr-16 16:30N 41°17' W 072°21'0 0.7
2018-Apr-16 16:00N 41°17' W 072°21'6 1.6
2018-Apr-16 12:06N 41°10' W 072°19'219.2
2018-Apr-16 12:00N 41°12' W 072°20'  

Dump ship's entire track history